createdAt,value
2018-04-14T00:00:55.599Z,10.33
2018-04-14T00:03:23.906Z,10.33
2018-04-14T00:05:52.350Z,10.29
2018-04-14T00:08:20.747Z,10.29
2018-04-14T00:10:49.067Z,10.31
2018-04-14T00:13:17.378Z,10.28
2018-04-14T00:15:45.709Z,10.29
2018-04-14T00:18:14.028Z,10.27
2018-04-14T00:20:42.978Z,10.29
2018-04-14T00:23:11.310Z,10.31
2018-04-14T00:25:39.639Z,10.30
2018-04-14T00:28:08.004Z,10.32
2018-04-14T00:30:36.330Z,10.36
2018-04-14T00:33:04.690Z,10.39
2018-04-14T00:35:33.012Z,10.37
2018-04-14T00:38:01.351Z,10.41
2018-04-14T00:40:29.744Z,10.46
2018-04-14T00:42:58.059Z,10.47
2018-04-14T00:45:26.444Z,10.53
2018-04-14T00:47:54.765Z,10.55
2018-04-14T00:50:23.118Z,10.53
2018-04-14T00:52:51.464Z,10.49
2018-04-14T00:55:19.791Z,10.54
2018-04-14T00:57:48.113Z,10.52
2018-04-14T01:00:16.440Z,10.55
2018-04-14T01:02:44.805Z,10.54
2018-04-14T01:05:13.131Z,10.53
2018-04-14T01:07:41.573Z,10.55
2018-04-14T01:10:09.911Z,10.58
2018-04-14T01:12:38.253Z,10.57
2018-04-14T01:15:06.749Z,10.58
2018-04-14T01:17:35.100Z,10.60
2018-04-14T01:20:03.727Z,10.65
2018-04-14T01:22:32.127Z,10.67
2018-04-14T01:25:00.437Z,10.68
2018-04-14T01:27:28.771Z,10.75
2018-04-14T01:29:57.090Z,10.77
2018-04-14T01:32:25.490Z,10.81
2018-04-14T01:34:53.812Z,10.88
2018-04-14T01:37:22.156Z,10.84
2018-04-14T01:39:50.509Z,10.89
2018-04-14T01:42:18.842Z,10.86
2018-04-14T01:44:47.195Z,10.87
2018-04-14T01:47:15.532Z,10.83
2018-04-14T01:49:43.891Z,10.82
2018-04-14T01:52:12.234Z,10.82
2018-04-14T01:54:40.615Z,10.86
2018-04-14T01:57:08.963Z,10.82
2018-04-14T01:59:37.300Z,10.86
2018-04-14T02:02:05.692Z,10.86
2018-04-14T02:04:34.083Z,10.88
2018-04-14T02:07:02.412Z,10.87
2018-04-14T02:09:30.762Z,10.89
2018-04-14T02:11:59.102Z,10.88
2018-04-14T02:14:27.427Z,10.87
2018-04-14T02:16:56.111Z,10.82
2018-04-14T02:19:24.531Z,10.82
2018-04-14T02:21:52.842Z,10.81
2018-04-14T02:24:21.227Z,10.84
2018-04-14T02:26:49.565Z,10.80
2018-04-14T02:29:17.933Z,10.78
2018-04-14T02:31:46.279Z,10.75
2018-04-14T02:34:14.693Z,10.73
2018-04-14T02:36:43.024Z,10.70
2018-04-14T02:39:11.355Z,10.65
2018-04-14T02:41:39.692Z,10.65
2018-04-14T02:44:08.048Z,10.60
2018-04-14T02:46:36.439Z,10.56
2018-04-14T02:49:04.831Z,10.56
2018-04-14T02:51:33.169Z,10.54
2018-04-14T02:54:01.513Z,10.57
2018-04-14T02:56:29.850Z,10.54
2018-04-14T02:58:58.162Z,10.55
2018-04-14T03:01:26.495Z,10.53
2018-04-14T03:03:54.798Z,10.55
2018-04-14T03:06:23.196Z,10.57
2018-04-14T03:08:51.513Z,10.58
2018-04-14T03:11:19.972Z,10.57
2018-04-14T03:13:48.305Z,10.58
2018-04-14T03:16:16.609Z,10.66
2018-04-14T03:18:44.939Z,10.71
2018-04-14T03:21:13.270Z,10.72
2018-04-14T03:23:41.594Z,10.72
2018-04-14T03:26:09.985Z,10.75
2018-04-14T03:28:38.421Z,10.74
2018-04-14T03:31:06.751Z,10.75
2018-04-14T03:33:35.190Z,10.78
2018-04-14T03:36:03.593Z,10.83
2018-04-14T03:38:32.181Z,10.84
2018-04-14T03:41:00.523Z,10.86
2018-04-14T03:43:28.859Z,10.89
2018-04-14T03:45:57.191Z,10.91
2018-04-14T03:48:25.544Z,10.93
2018-04-14T03:50:53.857Z,10.94
2018-04-14T03:53:22.217Z,10.98
2018-04-14T03:55:50.620Z,10.93
2018-04-14T03:58:19.027Z,10.88
2018-04-14T04:00:47.362Z,10.87
2018-04-14T04:03:15.787Z,10.85
2018-04-14T04:05:44.161Z,10.87
2018-04-14T04:08:12.750Z,10.83
2018-04-14T04:10:41.075Z,10.88
2018-04-14T04:13:09.426Z,10.90
2018-04-14T04:15:37.887Z,10.90
2018-04-14T04:18:06.329Z,10.93
2018-04-14T04:20:51.558Z,10.90
2018-04-14T04:23:31.631Z,10.91
2018-04-14T04:26:00.928Z,10.92
2018-04-14T04:28:29.321Z,10.93
2018-04-14T04:30:57.709Z,10.96
2018-04-14T04:33:26.051Z,10.98
2018-04-14T04:35:54.731Z,10.95
2018-04-14T04:38:23.085Z,10.95
2018-04-14T04:40:51.420Z,10.96
2018-04-14T04:43:19.739Z,10.96
2018-04-14T04:48:34.072Z,11.00
2018-04-14T04:51:02.410Z,11.00
2018-04-14T04:53:30.717Z,10.98
2018-04-14T04:55:59.050Z,10.98
2018-04-14T04:58:27.455Z,10.99
2018-04-14T05:00:55.787Z,11.00
2018-04-14T05:03:24.110Z,11.02
2018-04-14T05:05:52.486Z,11.00
2018-04-14T05:08:20.799Z,11.08
2018-04-14T05:10:49.613Z,11.06
2018-04-14T05:13:18.093Z,11.09
2018-04-14T05:15:46.448Z,11.13
2018-04-14T05:18:14.844Z,11.14
2018-04-14T05:20:43.183Z,11.15
2018-04-14T05:23:11.511Z,11.16
2018-04-14T05:25:39.905Z,11.16
2018-04-14T05:28:08.224Z,11.17
2018-04-14T05:30:36.538Z,11.16
2018-04-14T05:33:04.888Z,11.21
2018-04-14T05:35:33.240Z,11.33
2018-04-14T05:38:01.561Z,11.38
2018-04-14T05:40:29.988Z,11.37
2018-04-14T05:42:58.353Z,11.38
2018-04-14T05:45:26.652Z,11.47
2018-04-14T05:47:55.019Z,11.46
2018-04-14T05:50:23.346Z,11.44
2018-04-14T05:52:51.710Z,11.43
2018-04-14T05:55:20.042Z,11.42
2018-04-14T05:57:48.400Z,11.45
2018-04-14T06:00:16.720Z,11.45
2018-04-14T06:02:45.056Z,11.48
2018-04-14T06:05:13.411Z,11.47
2018-04-14T06:07:41.853Z,11.51
2018-04-14T06:10:10.207Z,11.50
2018-04-14T06:12:38.523Z,11.50
2018-04-14T06:15:06.871Z,11.56
2018-04-14T06:17:35.221Z,11.63
2018-04-14T06:20:03.530Z,11.64
2018-04-14T06:22:31.966Z,11.70
2018-04-14T06:25:00.336Z,11.76
2018-04-14T06:27:28.681Z,11.80
2018-04-14T06:29:57.036Z,11.87
2018-04-14T06:32:25.411Z,11.92
2018-04-14T06:34:53.822Z,11.95
2018-04-14T06:37:22.219Z,11.99
2018-04-14T06:39:50.526Z,12.00
2018-04-14T06:42:18.885Z,12.04
2018-04-14T06:44:47.208Z,12.17
2018-04-14T06:47:15.537Z,12.18
2018-04-14T06:49:43.900Z,12.21
2018-04-14T06:52:12.224Z,12.21
2018-04-14T06:54:40.541Z,12.27
2018-04-14T06:57:08.937Z,12.26
2018-04-14T06:59:37.330Z,12.33
2018-04-14T07:02:05.687Z,12.47
2018-04-14T07:04:34.036Z,12.61
2018-04-14T07:07:02.417Z,12.78
2018-04-14T07:09:30.749Z,12.91
2018-04-14T07:11:59.090Z,13.09
2018-04-14T07:14:27.428Z,13.33
2018-04-14T07:16:56.232Z,13.49
2018-04-14T07:19:24.543Z,13.56
2018-04-14T07:21:52.870Z,13.58
2018-04-14T07:24:21.211Z,13.55
2018-04-14T07:26:49.601Z,13.62
2018-04-14T07:29:17.899Z,13.69
2018-04-14T07:31:46.249Z,13.76
2018-04-14T07:34:14.596Z,14.32
2018-04-14T07:36:42.958Z,15.85
2018-04-14T07:39:11.398Z,17.37
2018-04-14T07:41:39.745Z,18.74
2018-04-14T07:44:08.181Z,19.47
2018-04-14T07:46:36.531Z,18.57
2018-04-14T07:49:04.883Z,18.46
2018-04-14T07:51:33.271Z,18.40
2018-04-14T07:54:01.607Z,18.04
2018-04-14T07:56:29.956Z,17.62
2018-04-14T07:58:58.367Z,17.04
2018-04-14T08:01:26.688Z,17.11
2018-04-14T08:03:55.059Z,17.18
2018-04-14T08:06:23.442Z,17.42
2018-04-14T08:08:51.820Z,17.76
2018-04-14T08:11:20.169Z,17.67
2018-04-14T08:13:48.549Z,18.20
2018-04-14T08:16:16.910Z,18.87
2018-04-14T08:18:45.282Z,19.77
2018-04-14T08:21:13.622Z,20.07
2018-04-14T08:23:41.976Z,19.82
2018-04-14T08:26:10.308Z,18.36
2018-04-14T08:28:38.696Z,17.94
2018-04-14T08:31:07.064Z,17.80
2018-04-14T08:33:35.378Z,17.11
2018-04-14T08:36:03.722Z,17.03
2018-04-14T08:38:32.084Z,16.94
2018-04-14T08:41:00.740Z,17.24
2018-04-14T08:43:29.108Z,18.37
2018-04-14T08:45:57.529Z,19.61
2018-04-14T08:48:25.861Z,20.53
2018-04-14T08:50:54.326Z,21.60
2018-04-14T08:53:22.640Z,22.38
2018-04-14T08:55:51.060Z,22.43
2018-04-14T08:58:19.408Z,22.88
2018-04-14T09:00:47.740Z,23.44
2018-04-14T09:03:16.111Z,23.81
2018-04-14T09:05:44.584Z,24.63
2018-04-14T09:08:12.922Z,24.02
2018-04-14T09:10:41.267Z,23.86
2018-04-14T09:13:09.767Z,24.68
2018-04-14T09:15:38.088Z,24.77
2018-04-14T09:18:06.785Z,24.37
2018-04-14T09:20:35.134Z,23.40
2018-04-14T09:23:03.514Z,23.16
2018-04-14T09:25:31.888Z,23.31
2018-04-14T09:28:00.366Z,23.98
2018-04-14T09:30:28.729Z,24.22
2018-04-14T09:32:57.052Z,25.10
2018-04-14T09:35:25.448Z,24.84
2018-04-14T09:37:53.829Z,25.05
2018-04-14T09:40:22.237Z,24.03
2018-04-14T09:42:50.606Z,24.69
2018-04-14T09:45:19.068Z,24.13
2018-04-14T09:47:47.474Z,23.50
2018-04-14T09:50:15.806Z,23.47
2018-04-14T09:52:44.262Z,23.08
2018-04-14T09:55:12.992Z,23.22
2018-04-14T09:57:41.326Z,23.31
2018-04-14T10:00:09.649Z,23.63
2018-04-14T10:02:43.550Z,23.55
2018-04-14T10:05:11.905Z,23.58
2018-04-14T10:07:40.242Z,23.20
2018-04-14T10:10:08.604Z,23.32
2018-04-14T10:12:36.936Z,23.63
2018-04-14T10:15:05.268Z,24.20
2018-04-14T10:17:33.657Z,23.92
2018-04-14T10:20:01.998Z,23.55
2018-04-14T10:22:30.342Z,24.06
2018-04-14T10:24:58.676Z,23.48
2018-04-14T10:27:27.003Z,24.28
2018-04-14T10:29:55.337Z,24.75
2018-04-14T10:32:23.792Z,24.28
2018-04-14T10:34:52.143Z,23.91
2018-04-14T10:37:20.499Z,23.69
2018-04-14T10:39:48.834Z,24.06
2018-04-14T10:42:17.179Z,24.02
2018-04-14T10:44:45.520Z,24.41
2018-04-14T10:47:13.833Z,24.39
2018-04-14T10:49:42.274Z,24.92
2018-04-14T10:52:10.629Z,25.33
2018-04-14T10:54:38.988Z,24.95
2018-04-14T10:57:07.421Z,25.94
2018-04-14T10:59:35.763Z,26.25
2018-04-14T11:02:04.211Z,26.63
2018-04-14T11:04:32.552Z,26.57
2018-04-14T11:07:00.893Z,25.72
2018-04-14T11:09:29.289Z,25.73
2018-04-14T11:11:58.210Z,25.58
2018-04-14T11:14:26.589Z,24.96
2018-04-14T11:16:54.989Z,25.38
2018-04-14T11:19:23.409Z,25.51
2018-04-14T11:21:51.747Z,25.29
2018-04-14T11:24:20.179Z,24.94
2018-04-14T11:26:48.654Z,24.85
2018-04-14T11:29:17.044Z,24.75
2018-04-14T11:31:45.371Z,24.08
2018-04-14T11:34:14.526Z,22.93
2018-04-14T11:36:42.855Z,22.77
2018-04-14T11:39:11.166Z,23.27
2018-04-14T11:41:39.613Z,23.16
2018-04-14T11:44:07.949Z,23.92
2018-04-14T11:46:36.297Z,24.32
2018-04-14T11:49:04.683Z,24.47
2018-04-14T11:51:33.024Z,25.12
2018-04-14T11:54:01.367Z,24.78
2018-04-14T11:56:29.704Z,24.62
2018-04-14T11:58:58.032Z,23.97
2018-04-14T12:01:26.431Z,22.66
2018-04-14T12:03:54.843Z,23.04
2018-04-14T12:06:23.151Z,23.26
2018-04-14T12:08:51.474Z,23.35
2018-04-14T12:11:19.865Z,23.04
2018-04-14T12:13:48.302Z,23.00
2018-04-14T12:16:16.666Z,22.36
2018-04-14T12:18:44.989Z,22.21
2018-04-14T12:21:13.381Z,22.57
2018-04-14T12:23:41.696Z,22.68
2018-04-14T12:26:10.008Z,23.28
2018-04-14T12:28:38.359Z,23.85
2018-04-14T12:31:06.665Z,24.46
2018-04-14T12:33:35.002Z,25.34
2018-04-14T12:36:03.335Z,25.73
2018-04-14T12:38:31.661Z,26.45
2018-04-14T12:40:59.987Z,26.44
2018-04-14T12:43:28.329Z,25.98
2018-04-14T12:45:56.690Z,25.81
2018-04-14T12:48:25.022Z,25.69
2018-04-14T12:50:53.375Z,26.68
2018-04-14T12:53:21.726Z,26.70
2018-04-14T12:55:50.192Z,26.55
2018-04-14T12:58:18.530Z,27.44
2018-04-14T13:00:46.883Z,27.04
2018-04-14T13:03:15.208Z,27.70
2018-04-14T13:05:43.537Z,28.05
2018-04-14T13:08:11.867Z,28.17
2018-04-14T13:10:40.790Z,27.61
2018-04-14T13:13:09.141Z,28.04
2018-04-14T13:15:37.521Z,27.30
2018-04-14T13:18:06.847Z,27.67
2018-04-14T13:20:35.217Z,27.76
2018-04-14T13:23:03.650Z,27.87
2018-04-14T13:25:31.999Z,27.26
2018-04-14T13:28:00.326Z,27.42
2018-04-14T13:30:28.679Z,28.01
2018-04-14T13:32:57.073Z,28.71
2018-04-14T13:35:25.447Z,29.00
2018-04-14T13:37:53.754Z,28.44
2018-04-14T13:40:22.111Z,28.44
2018-04-14T13:42:50.459Z,28.32
2018-04-14T13:45:18.845Z,28.38
2018-04-14T13:47:47.173Z,28.32
2018-04-14T13:50:15.647Z,28.97
2018-04-14T13:52:43.996Z,28.61
2018-04-14T13:55:12.409Z,28.48
2018-04-14T13:57:40.966Z,28.32
2018-04-14T14:00:09.292Z,27.59
2018-04-14T14:02:41.106Z,26.53
2018-04-14T14:05:09.537Z,26.68
2018-04-14T14:07:37.877Z,27.21
2018-04-14T14:10:06.194Z,27.46
2018-04-14T14:12:34.548Z,27.69
2018-04-14T14:15:02.889Z,27.96
2018-04-14T14:17:31.232Z,27.49
2018-04-14T14:19:59.557Z,27.27
2018-04-14T14:22:27.930Z,26.97
2018-04-14T14:24:56.249Z,27.04
2018-04-14T14:27:24.564Z,27.68
2018-04-14T14:29:52.886Z,28.03
2018-04-14T14:32:21.268Z,28.80
2018-04-14T14:34:49.726Z,28.16
2018-04-14T14:37:18.107Z,26.88
2018-04-14T14:39:46.451Z,26.96
2018-04-14T14:42:14.774Z,26.80
2018-04-14T14:44:43.142Z,26.51
2018-04-14T14:47:11.491Z,27.10
2018-04-14T14:49:39.821Z,27.20
2018-04-14T14:52:08.207Z,27.63
2018-04-14T14:54:36.601Z,27.57
2018-04-14T14:57:04.938Z,27.48
2018-04-14T14:59:33.295Z,27.34
2018-04-14T15:02:01.609Z,26.59
2018-04-14T15:04:29.951Z,26.34
2018-04-14T15:06:58.288Z,25.92
2018-04-14T15:09:26.608Z,25.93
2018-04-14T15:11:54.938Z,26.21
2018-04-14T15:14:23.606Z,26.22
2018-04-14T15:16:52.018Z,25.54
2018-04-14T15:19:20.411Z,25.72
2018-04-14T15:21:48.805Z,25.85
2018-04-14T15:24:17.134Z,25.89
2018-04-14T15:26:45.606Z,25.50
2018-04-14T15:29:13.931Z,25.01
2018-04-14T15:31:42.275Z,24.45
2018-04-14T15:34:10.607Z,24.48
2018-04-14T15:36:39.051Z,24.48
2018-04-14T15:39:07.389Z,24.55
2018-04-14T15:41:35.738Z,24.60
2018-04-14T15:44:04.093Z,24.38
2018-04-14T15:46:32.406Z,24.14
2018-04-14T15:49:00.746Z,24.20
2018-04-14T15:51:29.107Z,24.06
2018-04-14T15:53:57.538Z,23.92
2018-04-14T15:56:25.870Z,24.26
2018-04-14T15:58:54.200Z,24.16
2018-04-14T16:01:22.627Z,23.91
2018-04-14T16:03:51.065Z,23.43
2018-04-14T16:06:19.432Z,24.01
2018-04-14T16:08:47.845Z,23.77
2018-04-14T16:11:16.237Z,23.94
2018-04-14T16:13:44.710Z,24.06
2018-04-14T16:16:13.089Z,24.01
2018-04-14T16:18:41.419Z,23.75
2018-04-14T16:21:09.770Z,23.39
2018-04-14T16:23:38.281Z,23.25
2018-04-14T16:26:06.572Z,23.26
2018-04-14T16:28:34.913Z,23.22
2018-04-14T16:31:03.245Z,22.78
2018-04-14T16:33:31.565Z,22.64
2018-04-14T16:36:00.340Z,22.30
2018-04-14T16:38:28.758Z,22.11
2018-04-14T16:40:57.088Z,22.00
2018-04-14T16:43:25.417Z,21.73
2018-04-14T16:45:53.727Z,21.48
2018-04-14T16:48:22.223Z,21.31
2018-04-14T16:50:50.527Z,21.19
2018-04-14T16:53:19.210Z,21.06
2018-04-14T16:55:47.599Z,21.01
2018-04-14T16:58:15.908Z,21.01
2018-04-14T17:00:44.295Z,20.86
2018-04-14T17:03:12.744Z,20.91
2018-04-14T17:05:41.077Z,20.90
2018-04-14T17:08:09.717Z,20.98
2018-04-14T17:10:39.943Z,20.87
2018-04-14T17:13:08.269Z,20.93
2018-04-14T17:15:36.755Z,20.97
2018-04-14T17:18:05.097Z,21.01
2018-04-14T17:20:33.439Z,20.93
2018-04-14T17:23:01.842Z,20.71
2018-04-14T17:25:30.204Z,20.54
2018-04-14T17:27:58.530Z,20.20
2018-04-14T17:30:26.914Z,20.26
2018-04-14T17:32:55.269Z,20.11
2018-04-14T17:35:23.660Z,19.90
2018-04-14T17:37:52.001Z,19.76
2018-04-14T17:40:20.424Z,19.62
2018-04-14T17:42:48.775Z,19.46
2018-04-14T17:45:17.090Z,19.31
2018-04-14T17:47:45.523Z,19.14
2018-04-14T17:50:13.828Z,18.98
2018-04-14T17:52:42.168Z,18.82
2018-04-14T17:55:10.515Z,18.61
2018-04-14T17:57:38.875Z,18.50
2018-04-14T18:00:07.187Z,18.33
2018-04-14T18:02:35.566Z,18.18
2018-04-14T18:05:03.854Z,18.02
2018-04-14T18:07:32.241Z,17.88
2018-04-14T18:10:00.652Z,17.70
2018-04-14T18:12:29.291Z,17.53
2018-04-14T18:14:57.613Z,17.32
2018-04-14T18:17:25.968Z,17.15
2018-04-14T18:19:54.378Z,17.00
2018-04-14T18:22:22.729Z,16.83
2018-04-14T18:24:51.326Z,16.72
2018-04-14T18:27:19.671Z,16.57
2018-04-14T18:29:48.055Z,16.52
2018-04-14T18:32:16.433Z,16.40
2018-04-14T18:34:44.788Z,16.28
2018-04-14T18:37:13.344Z,16.21
2018-04-14T18:39:41.669Z,16.06
2018-04-14T18:42:10.009Z,15.95
2018-04-14T18:44:38.368Z,15.84
2018-04-14T18:47:06.699Z,15.79
2018-04-14T18:49:35.049Z,15.80
2018-04-14T18:52:03.489Z,15.77
2018-04-14T18:54:31.855Z,15.72
2018-04-14T18:57:00.331Z,15.72
2018-04-14T18:59:28.698Z,15.67
2018-04-14T19:01:57.052Z,15.57
2018-04-14T19:04:25.450Z,15.45
2018-04-14T19:06:53.874Z,15.34
2018-04-14T19:09:22.842Z,15.23
2018-04-14T19:11:51.260Z,15.17
2018-04-14T19:14:19.611Z,15.14
2018-04-14T19:16:48.018Z,15.04
2018-04-14T19:19:16.358Z,14.93
2018-04-14T19:21:44.823Z,14.84
2018-04-14T19:24:13.242Z,14.77
2018-04-14T19:26:41.597Z,14.70
2018-04-14T19:29:09.944Z,14.62
2018-04-14T19:31:38.312Z,14.55
2018-04-14T19:34:06.759Z,14.50
2018-04-14T19:36:35.207Z,14.45
2018-04-14T19:39:03.569Z,14.53
2018-04-14T19:41:31.959Z,14.44
2018-04-14T19:44:00.313Z,14.30
2018-04-14T19:46:28.723Z,14.28
2018-04-14T19:48:57.056Z,14.19
2018-04-14T19:51:25.437Z,14.11
2018-04-14T19:53:53.789Z,14.05
2018-04-14T19:56:22.169Z,14.00
2018-04-14T19:58:50.469Z,13.94
2018-04-14T20:03:46.259Z,13.77
2018-04-14T20:06:14.581Z,13.73
2018-04-14T20:08:42.954Z,13.73
2018-04-14T20:11:11.283Z,13.71
2018-04-14T20:13:39.649Z,13.62
2018-04-14T20:16:08.104Z,13.59
2018-04-14T20:18:36.451Z,13.58
2018-04-14T20:21:04.810Z,13.61
2018-04-14T20:23:33.184Z,13.57
2018-04-14T20:26:01.558Z,13.49
2018-04-14T20:28:30.770Z,13.38
2018-04-14T20:30:59.162Z,13.37
2018-04-14T20:33:27.508Z,13.35
2018-04-14T20:35:55.842Z,13.32
2018-04-14T20:38:24.199Z,13.31
2018-04-14T20:40:52.524Z,13.18
2018-04-14T20:43:20.978Z,13.07
2018-04-14T20:45:49.329Z,13.02
2018-04-14T20:48:17.730Z,13.08
2018-04-14T20:50:46.065Z,13.12
2018-04-14T20:53:14.450Z,13.18
2018-04-14T20:55:42.781Z,13.21
2018-04-14T20:58:11.220Z,13.23
2018-04-14T21:00:39.555Z,13.22
2018-04-14T21:03:07.940Z,13.24
2018-04-14T21:05:36.293Z,13.28
2018-04-14T21:08:04.619Z,13.26
2018-04-14T21:10:32.962Z,13.26
2018-04-14T21:13:01.296Z,13.19
2018-04-14T21:15:29.686Z,13.08
2018-04-14T21:17:58.041Z,13.03
2018-04-14T21:20:26.411Z,12.96
2018-04-14T21:22:55.153Z,12.96
2018-04-14T21:25:23.485Z,12.99
2018-04-14T21:27:51.825Z,12.99
2018-04-14T21:30:20.207Z,12.91
2018-04-14T21:32:48.592Z,12.89
2018-04-14T21:35:16.936Z,12.84
2018-04-14T21:37:45.272Z,12.79
2018-04-14T21:40:13.660Z,12.79
2018-04-14T21:42:42.202Z,12.80
2018-04-14T21:45:10.606Z,12.87
2018-04-14T21:47:38.946Z,12.86
2018-04-14T21:50:07.322Z,12.87
2018-04-14T21:52:35.721Z,12.87
2018-04-14T21:55:04.109Z,12.93
2018-04-14T21:57:32.452Z,12.95
2018-04-14T22:00:00.794Z,12.95
2018-04-14T22:02:29.143Z,12.81
2018-04-14T22:04:57.447Z,12.79
2018-04-14T22:07:25.767Z,12.67
2018-04-14T22:09:54.167Z,12.63
2018-04-14T22:12:22.495Z,12.64
2018-04-14T22:14:50.803Z,12.56
2018-04-14T22:17:19.190Z,12.48
2018-04-14T22:19:47.528Z,12.49
2018-04-14T22:22:15.955Z,12.49
2018-04-14T22:24:44.267Z,12.54
2018-04-14T22:27:12.659Z,12.57
2018-04-14T22:29:40.995Z,12.53
2018-04-14T22:32:09.412Z,12.47
2018-04-14T22:34:37.733Z,12.45
2018-04-14T22:37:06.114Z,12.37
2018-04-14T22:39:34.449Z,12.34
2018-04-14T22:42:02.824Z,12.32
2018-04-14T22:44:31.234Z,12.32
2018-04-14T22:46:59.672Z,12.34
2018-04-14T22:49:28.012Z,12.26
2018-04-14T22:51:56.456Z,12.22
2018-04-14T22:54:24.753Z,12.20
2018-04-14T22:56:53.104Z,12.20
2018-04-14T22:59:21.502Z,12.18
2018-04-14T23:01:49.821Z,12.14
2018-04-14T23:04:18.198Z,12.08
2018-04-14T23:06:46.580Z,12.01
2018-04-14T23:09:14.927Z,11.98
2018-04-14T23:11:43.265Z,11.98
2018-04-14T23:14:11.620Z,11.97
2018-04-14T23:16:40.066Z,12.00
2018-04-14T23:19:08.399Z,11.99
2018-04-14T23:21:36.741Z,11.95
2018-04-14T23:24:05.079Z,11.93
2018-04-14T23:26:33.516Z,11.90
2018-04-14T23:29:01.879Z,11.94
2018-04-14T23:31:30.346Z,11.90
2018-04-14T23:33:58.670Z,11.95
2018-04-14T23:36:27.015Z,11.93
2018-04-14T23:38:55.349Z,11.92
2018-04-14T23:41:23.716Z,11.84
2018-04-14T23:43:52.042Z,11.82
2018-04-14T23:46:20.387Z,11.73
2018-04-14T23:48:49.093Z,11.69
2018-04-14T23:51:17.422Z,11.66
2018-04-14T23:53:45.770Z,11.56
2018-04-14T23:56:14.106Z,11.50
2018-04-14T23:58:42.508Z,11.48
